sensor_id;sensor_type;location;lat;lon;timestamp;pressure;altitude;pressure_sealevel;temperature;humidity
77077;BME280;66003;52.286;104.306;2024-02-26T00:00:58;98140.41;;;-24.76;33.07
77077;BME280;66003;52.286;104.306;2024-02-26T00:03:24;98141.34;;;-24.79;33.19
77077;BME280;66003;52.286;104.306;2024-02-26T00:05:50;98144.16;;;-24.85;33.29
77077;BME280;66003;52.286;104.306;2024-02-26T00:08:16;98140.81;;;-24.65;33.42
77077;BME280;66003;52.286;104.306;2024-02-26T00:10:43;98147.00;;;-24.71;33.32
77077;BME280;66003;52.286;104.306;2024-02-26T00:13:09;98147.88;;;-24.72;33.00
77077;BME280;66003;52.286;104.306;2024-02-26T00:15:35;98153.41;;;-24.82;33.32
77077;BME280;66003;52.286;104.306;2024-02-26T00:18:02;98156.53;;;-24.76;33.47
77077;BME280;66003;52.286;104.306;2024-02-26T00:20:28;98156.50;;;-24.34;33.10
77077;BME280;66003;52.286;104.306;2024-02-26T00:22:54;98154.22;;;-23.99;33.29
77077;BME280;66003;52.286;104.306;2024-02-26T00:25:20;98155.72;;;-23.75;32.64
77077;BME280;66003;52.286;104.306;2024-02-26T00:27:46;98155.13;;;-23.42;32.29
77077;BME280;66003;52.286;104.306;2024-02-26T00:30:13;98155.66;;;-22.98;32.20
77077;BME280;66003;52.286;104.306;2024-02-26T00:32:39;98146.94;;;-22.58;32.28
77077;BME280;66003;52.286;104.306;2024-02-26T00:35:05;98146.91;;;-22.07;31.99
77077;BME280;66003;52.286;104.306;2024-02-26T00:37:32;98150.91;;;-22.01;31.49
77077;BME280;66003;52.286;104.306;2024-02-26T00:39:58;98152.66;;;-21.51;31.45
77077;BME280;66003;52.286;104.306;2024-02-26T00:42:24;98155.78;;;-21.46;31.66
77077;BME280;66003;52.286;104.306;2024-02-26T00:44:50;98161.75;;;-21.30;31.36
77077;BME280;66003;52.286;104.306;2024-02-26T00:47:17;98161.13;;;-21.18;31.31
77077;BME280;66003;52.286;104.306;2024-02-26T00:49:43;98151.34;;;-20.96;31.23
77077;BME280;66003;52.286;104.306;2024-02-26T00:52:09;98159.03;;;-20.64;30.49
77077;BME280;66003;52.286;104.306;2024-02-26T00:54:35;98149.50;;;-20.46;30.84
77077;BME280;66003;52.286;104.306;2024-02-26T00:57:01;98158.94;;;-20.47;30.10
77077;BME280;66003;52.286;104.306;2024-02-26T00:59:28;98160.56;;;-20.30;29.93
77077;BME280;66003;52.286;104.306;2024-02-26T01:01:54;98157.81;;;-20.27;29.90
77077;BME280;66003;52.286;104.306;2024-02-26T01:04:20;98150.38;;;-19.88;30.11
77077;BME280;66003;52.286;104.306;2024-02-26T01:06:46;98149.75;;;-19.20;29.03
77077;BME280;66003;52.286;104.306;2024-02-26T01:09:12;98157.28;;;-18.76;29.23
77077;BME280;66003;52.286;104.306;2024-02-26T01:11:38;98162.91;;;-18.03;28.74
77077;BME280;66003;52.286;104.306;2024-02-26T01:14:04;98153.81;;;-17.07;28.67
77077;BME280;66003;52.286;104.306;2024-02-26T01:16:32;98157.63;;;-16.64;28.31
77077;BME280;66003;52.286;104.306;2024-02-26T01:18:58;98151.16;;;-16.45;27.43
77077;BME280;66003;52.286;104.306;2024-02-26T01:21:24;98147.75;;;-16.46;27.52
77077;BME280;66003;52.286;104.306;2024-02-26T01:23:50;98151.72;;;-16.66;27.75
77077;BME280;66003;52.286;104.306;2024-02-26T01:26:16;98148.66;;;-16.47;27.49
77077;BME280;66003;52.286;104.306;2024-02-26T01:28:43;98142.72;;;-16.13;27.12
77077;BME280;66003;52.286;104.306;2024-02-26T01:31:09;98148.53;;;-15.29;26.57
77077;BME280;66003;52.286;104.306;2024-02-26T01:33:36;98149.78;;;-14.68;26.19
77077;BME280;66003;52.286;104.306;2024-02-26T01:36:02;98143.59;;;-13.81;25.77
77077;BME280;66003;52.286;104.306;2024-02-26T01:38:28;98142.03;;;-12.81;23.27
77077;BME280;66003;52.286;104.306;2024-02-26T01:40:55;98144.09;;;-12.06;23.93
77077;BME280;66003;52.286;104.306;2024-02-26T01:43:22;98147.47;;;-11.48;24.80
77077;BME280;66003;52.286;104.306;2024-02-26T01:45:48;98148.66;;;-11.23;22.42
77077;BME280;66003;52.286;104.306;2024-02-26T01:48:14;98150.63;;;-11.44;19.96
77077;BME280;66003;52.286;104.306;2024-02-26T01:50:42;98149.63;;;-11.24;23.40
77077;BME280;66003;52.286;104.306;2024-02-26T01:53:12;98144.81;;;-11.19;23.21
77077;BME280;66003;52.286;104.306;2024-02-26T01:55:39;98143.47;;;-10.58;23.71
77077;BME280;66003;52.286;104.306;2024-02-26T01:58:05;98138.88;;;-10.29;22.06
77077;BME280;66003;52.286;104.306;2024-02-26T02:00:32;98131.06;;;-10.11;21.14
77077;BME280;66003;52.286;104.306;2024-02-26T02:02:58;98138.69;;;-10.00;23.48
77077;BME280;66003;52.286;104.306;2024-02-26T02:05:24;98134.06;;;-9.88;23.00
77077;BME280;66003;52.286;104.306;2024-02-26T02:07:51;98129.47;;;-9.51;23.29
77077;BME280;66003;52.286;104.306;2024-02-26T02:10:19;98124.16;;;-9.59;23.54
77077;BME280;66003;52.286;104.306;2024-02-26T02:12:49;98127.09;;;-9.62;23.83
77077;BME280;66003;52.286;104.306;2024-02-26T02:15:15;98128.84;;;-9.45;24.22
77077;BME280;66003;52.286;104.306;2024-02-26T02:17:42;98119.69;;;-8.89;24.12
77077;BME280;66003;52.286;104.306;2024-02-26T02:20:14;98129.38;;;-8.39;23.57
77077;BME280;66003;52.286;104.306;2024-02-26T02:22:41;98124.41;;;-7.84;23.60
77077;BME280;66003;52.286;104.306;2024-02-26T02:25:07;98121.94;;;-7.45;21.44
77077;BME280;66003;52.286;104.306;2024-02-26T02:27:33;98110.75;;;-7.15;20.48
77077;BME280;66003;52.286;104.306;2024-02-26T02:30:00;98117.63;;;-7.06;19.74
77077;BME280;66003;52.286;104.306;2024-02-26T02:32:27;98108.38;;;-5.93;22.24
77077;BME280;66003;52.286;104.306;2024-02-26T02:34:56;98107.59;;;-4.74;21.17
77077;BME280;66003;52.286;104.306;2024-02-26T02:37:22;98106.56;;;-3.71;19.02
77077;BME280;66003;52.286;104.306;2024-02-26T02:39:48;98099.25;;;-3.20;17.12
77077;BME280;66003;52.286;104.306;2024-02-26T02:42:15;98106.00;;;-2.83;17.21
77077;BME280;66003;52.286;104.306;2024-02-26T02:44:41;98105.63;;;-2.74;18.07
77077;BME280;66003;52.286;104.306;2024-02-26T02:47:07;98098.97;;;-2.97;16.82
77077;BME280;66003;52.286;104.306;2024-02-26T02:49:34;98104.22;;;-3.60;15.67
77077;BME280;66003;52.286;104.306;2024-02-26T02:52:00;98106.84;;;-4.02;16.80
77077;BME280;66003;52.286;104.306;2024-02-26T02:54:26;98104.78;;;-4.58;16.97
77077;BME280;66003;52.286;104.306;2024-02-26T02:56:53;98100.59;;;-4.96;16.33
77077;BME280;66003;52.286;104.306;2024-02-26T02:59:19;98101.28;;;-5.32;16.29
77077;BME280;66003;52.286;104.306;2024-02-26T03:01:45;98103.97;;;-6.00;16.84
77077;BME280;66003;52.286;104.306;2024-02-26T03:04:12;98099.19;;;-6.89;18.26
77077;BME280;66003;52.286;104.306;2024-02-26T03:06:38;98103.25;;;-7.91;18.91
77077;BME280;66003;52.286;104.306;2024-02-26T03:09:04;98109.47;;;-8.66;18.70
77077;BME280;66003;52.286;104.306;2024-02-26T03:11:31;98104.34;;;-8.26;20.40
77077;BME280;66003;52.286;104.306;2024-02-26T03:13:57;98101.91;;;-7.38;19.04
77077;BME280;66003;52.286;104.306;2024-02-26T03:16:23;98088.72;;;-6.05;18.72
77077;BME280;66003;52.286;104.306;2024-02-26T03:18:49;98084.94;;;-5.27;17.70
77077;BME280;66003;52.286;104.306;2024-02-26T03:21:15;98080.59;;;-5.20;18.37
77077;BME280;66003;52.286;104.306;2024-02-26T03:23:41;98086.75;;;-5.28;17.40
77077;BME280;66003;52.286;104.306;2024-02-26T03:26:08;98079.50;;;-5.26;17.27
77077;BME280;66003;52.286;104.306;2024-02-26T03:28:37;98081.34;;;-5.86;17.33
77077;BME280;66003;52.286;104.306;2024-02-26T03:31:03;98083.47;;;-7.06;17.65
77077;BME280;66003;52.286;104.306;2024-02-26T03:33:29;98089.94;;;-8.30;17.75
77077;BME280;66003;52.286;104.306;2024-02-26T03:35:55;98091.78;;;-9.32;18.76
77077;BME280;66003;52.286;104.306;2024-02-26T03:38:22;98082.31;;;-10.20;19.18
77077;BME280;66003;52.286;104.306;2024-02-26T03:40:48;98078.22;;;-10.68;19.97
77077;BME280;66003;52.286;104.306;2024-02-26T03:43:14;98085.94;;;-10.76;20.51
77077;BME280;66003;52.286;104.306;2024-02-26T03:45:56;98086.25;;;-10.79;21.08
77077;BME280;66003;52.286;104.306;2024-02-26T03:48:51;98072.13;;;-10.86;21.08
77077;BME280;66003;52.286;104.306;2024-02-26T03:51:17;98076.38;;;-10.85;21.35
77077;BME280;66003;52.286;104.306;2024-02-26T03:53:43;98082.19;;;-10.91;21.42
77077;BME280;66003;52.286;104.306;2024-02-26T03:56:11;98079.59;;;-10.91;21.85
77077;BME280;66003;52.286;104.306;2024-02-26T03:58:39;98082.63;;;-10.96;22.14
77077;BME280;66003;52.286;104.306;2024-02-26T04:01:08;98082.41;;;-11.12;21.90
77077;BME280;66003;52.286;104.306;2024-02-26T04:03:35;98073.09;;;-11.15;21.89
77077;BME280;66003;52.286;104.306;2024-02-26T04:06:02;98058.00;;;-11.21;22.25
77077;BME280;66003;52.286;104.306;2024-02-26T04:08:29;98067.09;;;-11.25;21.87
77077;BME280;66003;52.286;104.306;2024-02-26T04:10:55;98064.66;;;-11.36;22.23
77077;BME280;66003;52.286;104.306;2024-02-26T04:13:21;98060.13;;;-11.34;22.19
77077;BME280;66003;52.286;104.306;2024-02-26T04:19:32;98052.22;;;-11.15;22.47
77077;BME280;66003;52.286;104.306;2024-02-26T04:21:59;98042.00;;;-11.08;22.71
77077;BME280;66003;52.286;104.306;2024-02-26T04:24:25;98041.28;;;-11.01;22.42
77077;BME280;66003;52.286;104.306;2024-02-26T04:26:52;98038.78;;;-10.92;22.74
77077;BME280;66003;52.286;104.306;2024-02-26T04:29:18;98019.34;;;-11.08;22.54
77077;BME280;66003;52.286;104.306;2024-02-26T04:31:44;98038.31;;;-10.88;22.75
77077;BME280;66003;52.286;104.306;2024-02-26T04:34:12;98033.28;;;-10.89;22.99
77077;BME280;66003;52.286;104.306;2024-02-26T04:36:38;98032.72;;;-10.93;23.04
77077;BME280;66003;52.286;104.306;2024-02-26T04:39:05;98019.41;;;-10.90;22.55
77077;BME280;66003;52.286;104.306;2024-02-26T04:41:32;98025.53;;;-10.81;22.92
77077;BME280;66003;52.286;104.306;2024-02-26T04:43:58;98016.03;;;-10.65;23.03
77077;BME280;66003;52.286;104.306;2024-02-26T04:46:24;98016.28;;;-10.58;22.89
77077;BME280;66003;52.286;104.306;2024-02-26T04:48:51;97997.75;;;-10.65;23.20
77077;BME280;66003;52.286;104.306;2024-02-26T04:51:17;98006.44;;;-10.46;23.10
77077;BME280;66003;52.286;104.306;2024-02-26T04:53:43;98000.00;;;-10.70;23.53
77077;BME280;66003;52.286;104.306;2024-02-26T04:56:10;98000.22;;;-10.63;23.56
77077;BME280;66003;52.286;104.306;2024-02-26T04:58:36;98000.63;;;-10.58;23.87
77077;BME280;66003;52.286;104.306;2024-02-26T05:01:03;97992.69;;;-10.48;24.17
77077;BME280;66003;52.286;104.306;2024-02-26T05:03:32;97995.75;;;-10.35;24.24
77077;BME280;66003;52.286;104.306;2024-02-26T05:05:58;97995.50;;;-10.24;23.88
77077;BME280;66003;52.286;104.306;2024-02-26T05:08:24;97985.19;;;-10.25;24.15
77077;BME280;66003;52.286;104.306;2024-02-26T05:10:50;97988.44;;;-10.32;24.20
77077;BME280;66003;52.286;104.306;2024-02-26T05:13:16;97992.84;;;-10.32;24.13
77077;BME280;66003;52.286;104.306;2024-02-26T05:15:44;97984.09;;;-10.41;24.46
77077;BME280;66003;52.286;104.306;2024-02-26T05:18:13;97975.97;;;-10.38;24.66
77077;BME280;66003;52.286;104.306;2024-02-26T05:20:39;97969.81;;;-10.29;24.53
77077;BME280;66003;52.286;104.306;2024-02-26T05:23:05;97970.97;;;-10.31;24.59
77077;BME280;66003;52.286;104.306;2024-02-26T05:25:31;97961.34;;;-10.31;24.64
77077;BME280;66003;52.286;104.306;2024-02-26T05:27:57;97958.03;;;-10.33;24.53
77077;BME280;66003;52.286;104.306;2024-02-26T05:30:34;97959.69;;;-10.32;24.66
77077;BME280;66003;52.286;104.306;2024-02-26T05:33:00;97948.63;;;-10.25;24.78
77077;BME280;66003;52.286;104.306;2024-02-26T05:35:26;97946.66;;;-10.23;24.77
77077;BME280;66003;52.286;104.306;2024-02-26T05:37:53;97953.81;;;-10.08;24.92
77077;BME280;66003;52.286;104.306;2024-02-26T05:40:19;97936.34;;;-10.07;24.50
77077;BME280;66003;52.286;104.306;2024-02-26T05:42:46;97938.94;;;-10.07;24.98
77077;BME280;66003;52.286;104.306;2024-02-26T05:45:12;97937.50;;;-10.02;25.01
77077;BME280;66003;52.286;104.306;2024-02-26T05:47:38;97935.00;;;-10.11;25.19
77077;BME280;66003;52.286;104.306;2024-02-26T05:50:11;97924.06;;;-10.07;25.28
77077;BME280;66003;52.286;104.306;2024-02-26T05:52:39;97923.97;;;-9.97;25.44
77077;BME280;66003;52.286;104.306;2024-02-26T05:55:06;97926.16;;;-9.84;25.58
77077;BME280;66003;52.286;104.306;2024-02-26T05:57:33;97920.19;;;-9.95;25.26
77077;BME280;66003;52.286;104.306;2024-02-26T06:00:00;97917.59;;;-9.95;25.79
77077;BME280;66003;52.286;104.306;2024-02-26T06:02:30;97918.34;;;-10.10;25.85
77077;BME280;66003;52.286;104.306;2024-02-26T06:04:57;97916.31;;;-10.16;26.10
77077;BME280;66003;52.286;104.306;2024-02-26T06:07:24;97920.69;;;-10.25;26.12
77077;BME280;66003;52.286;104.306;2024-02-26T06:09:50;97914.63;;;-10.25;26.40
77077;BME280;66003;52.286;104.306;2024-02-26T06:12:16;97916.94;;;-10.22;26.31
77077;BME280;66003;52.286;104.306;2024-02-26T06:14:43;97913.47;;;-10.31;25.79
77077;BME280;66003;52.286;104.306;2024-02-26T06:17:09;97915.25;;;-10.32;26.18
77077;BME280;66003;52.286;104.306;2024-02-26T06:19:35;97906.06;;;-10.36;26.69
77077;BME280;66003;52.286;104.306;2024-02-26T06:22:01;97902.91;;;-10.21;26.14
77077;BME280;66003;52.286;104.306;2024-02-26T06:24:37;97898.59;;;-10.31;26.65
77077;BME280;66003;52.286;104.306;2024-02-26T06:27:23;97893.38;;;-10.31;27.11
77077;BME280;66003;52.286;104.306;2024-02-26T06:29:49;97898.16;;;-10.18;27.04
77077;BME280;66003;52.286;104.306;2024-02-26T06:35:56;97890.53;;;-10.11;26.34
77077;BME280;66003;52.286;104.306;2024-02-26T06:38:22;97879.59;;;-10.07;26.47
77077;BME280;66003;52.286;104.306;2024-02-26T06:40:49;97890.03;;;-10.15;26.34
77077;BME280;66003;52.286;104.306;2024-02-26T06:43:15;97887.94;;;-10.11;26.08
77077;BME280;66003;52.286;104.306;2024-02-26T06:45:42;97882.47;;;-10.18;26.26
77077;BME280;66003;52.286;104.306;2024-02-26T06:48:08;97875.16;;;-10.14;26.55
77077;BME280;66003;52.286;104.306;2024-02-26T06:50:34;97884.69;;;-10.05;26.10
77077;BME280;66003;52.286;104.306;2024-02-26T06:53:00;97879.00;;;-10.01;26.60
77077;BME280;66003;52.286;104.306;2024-02-26T06:55:27;97876.41;;;-9.93;26.48
77077;BME280;66003;52.286;104.306;2024-02-26T06:57:53;97865.63;;;-9.98;26.25
77077;BME280;66003;52.286;104.306;2024-02-26T07:00:19;97870.19;;;-10.00;26.19
77077;BME280;66003;52.286;104.306;2024-02-26T07:02:45;97880.19;;;-9.95;26.04
77077;BME280;66003;52.286;104.306;2024-02-26T07:05:11;97878.22;;;-9.93;25.99
77077;BME280;66003;52.286;104.306;2024-02-26T07:07:38;97870.91;;;-10.15;25.92
77077;BME280;66003;52.286;104.306;2024-02-26T07:10:05;97869.91;;;-10.22;26.24
77077;BME280;66003;52.286;104.306;2024-02-26T07:12:38;97867.84;;;-10.11;26.38
77077;BME280;66003;52.286;104.306;2024-02-26T07:15:43;97873.38;;;-10.14;26.25
77077;BME280;66003;52.286;104.306;2024-02-26T07:18:09;97874.91;;;-10.29;26.32
77077;BME280;66003;52.286;104.306;2024-02-26T07:20:36;97865.97;;;-10.18;26.09
77077;BME280;66003;52.286;104.306;2024-02-26T07:23:02;97864.97;;;-10.25;25.74
77077;BME280;66003;52.286;104.306;2024-02-26T07:25:29;97858.22;;;-10.02;26.08
77077;BME280;66003;52.286;104.306;2024-02-26T07:27:55;97855.16;;;-9.98;25.86
77077;BME280;66003;52.286;104.306;2024-02-26T07:30:21;97856.28;;;-10.00;25.79
77077;BME280;66003;52.286;104.306;2024-02-26T07:32:47;97859.47;;;-9.80;25.93
77077;BME280;66003;52.286;104.306;2024-02-26T07:35:14;97843.88;;;-9.98;25.68
77077;BME280;66003;52.286;104.306;2024-02-26T07:37:40;97849.94;;;-9.98;25.83
77077;BME280;66003;52.286;104.306;2024-02-26T07:40:07;97854.69;;;-9.93;25.76
77077;BME280;66003;52.286;104.306;2024-02-26T07:42:34;97856.66;;;-9.95;25.88
77077;BME280;66003;52.286;104.306;2024-02-26T07:45:00;97848.00;;;-9.96;25.73
77077;BME280;66003;52.286;104.306;2024-02-26T07:47:26;97850.63;;;-9.87;25.82
77077;BME280;66003;52.286;104.306;2024-02-26T07:49:52;97841.06;;;-10.05;25.70
77077;BME280;66003;52.286;104.306;2024-02-26T07:52:18;97844.19;;;-10.01;25.57
77077;BME280;66003;52.286;104.306;2024-02-26T07:54:44;97846.44;;;-10.06;25.58
77077;BME280;66003;52.286;104.306;2024-02-26T07:57:10;97841.38;;;-10.08;25.86
77077;BME280;66003;52.286;104.306;2024-02-26T07:59:37;97845.09;;;-9.84;25.77
77077;BME280;66003;52.286;104.306;2024-02-26T08:02:03;97843.50;;;-9.69;25.82
77077;BME280;66003;52.286;104.306;2024-02-26T08:04:31;97830.38;;;-9.77;25.69
77077;BME280;66003;52.286;104.306;2024-02-26T08:06:57;97836.44;;;-9.77;25.82
77077;BME280;66003;52.286;104.306;2024-02-26T08:09:23;97843.63;;;-9.79;25.78
77077;BME280;66003;52.286;104.306;2024-02-26T08:11:50;97839.03;;;-9.85;25.47
77077;BME280;66003;52.286;104.306;2024-02-26T08:14:16;97835.41;;;-9.92;25.30
77077;BME280;66003;52.286;104.306;2024-02-26T08:16:42;97843.91;;;-9.90;25.79
77077;BME280;66003;52.286;104.306;2024-02-26T08:19:08;97839.09;;;-10.03;25.20
77077;BME280;66003;52.286;104.306;2024-02-26T08:21:36;97836.72;;;-9.88;25.40
77077;BME280;66003;52.286;104.306;2024-02-26T08:24:02;97831.03;;;-9.83;25.33
77077;BME280;66003;52.286;104.306;2024-02-26T08:26:28;97830.84;;;-9.82;25.14
77077;BME280;66003;52.286;104.306;2024-02-26T08:28:55;97838.38;;;-9.87;24.87
77077;BME280;66003;52.286;104.306;2024-02-26T08:31:21;97832.09;;;-10.02;24.36
77077;BME280;66003;52.286;104.306;2024-02-26T08:33:49;97825.09;;;-9.94;24.63
77077;BME280;66003;52.286;104.306;2024-02-26T08:36:15;97822.28;;;-10.00;24.64
77077;BME280;66003;52.286;104.306;2024-02-26T08:38:41;97827.16;;;-10.05;24.91
77077;BME280;66003;52.286;104.306;2024-02-26T08:41:07;97826.19;;;-10.04;24.78
77077;BME280;66003;52.286;104.306;2024-02-26T08:43:34;97826.69;;;-10.09;24.63
77077;BME280;66003;52.286;104.306;2024-02-26T08:46:00;97826.69;;;-10.01;24.73
77077;BME280;66003;52.286;104.306;2024-02-26T08:48:26;97833.63;;;-10.17;24.88
77077;BME280;66003;52.286;104.306;2024-02-26T08:50:52;97825.19;;;-10.11;25.01
77077;BME280;66003;52.286;104.306;2024-02-26T08:53:19;97824.66;;;-10.15;25.01
77077;BME280;66003;52.286;104.306;2024-02-26T08:55:46;97848.47;;;-10.26;24.77
77077;BME280;66003;52.286;104.306;2024-02-26T08:58:12;97826.63;;;-10.17;24.89
77077;BME280;66003;52.286;104.306;2024-02-26T09:00:38;97827.59;;;-10.18;24.95
77077;BME280;66003;52.286;104.306;2024-02-26T09:03:04;97829.22;;;-10.17;24.67
77077;BME280;66003;52.286;104.306;2024-02-26T09:05:31;97816.31;;;-10.18;25.52
77077;BME280;66003;52.286;104.306;2024-02-26T09:07:57;97819.41;;;-10.23;25.43
77077;BME280;66003;52.286;104.306;2024-02-26T09:10:23;97826.72;;;-10.27;25.25
77077;BME280;66003;52.286;104.306;2024-02-26T09:12:49;97823.44;;;-10.29;25.40
77077;BME280;66003;52.286;104.306;2024-02-26T09:15:15;97824.69;;;-10.41;25.25
77077;BME280;66003;52.286;104.306;2024-02-26T09:17:41;97830.97;;;-10.34;25.21
77077;BME280;66003;52.286;104.306;2024-02-26T09:20:08;97829.97;;;-10.33;25.43
77077;BME280;66003;52.286;104.306;2024-02-26T09:22:35;97829.97;;;-10.33;25.35
77077;BME280;66003;52.286;104.306;2024-02-26T09:25:04;97828.50;;;-10.35;25.45
77077;BME280;66003;52.286;104.306;2024-02-26T09:27:32;97817.03;;;-10.42;25.65
77077;BME280;66003;52.286;104.306;2024-02-26T09:29:58;97826.66;;;-10.43;25.64
77077;BME280;66003;52.286;104.306;2024-02-26T09:32:25;97820.81;;;-10.37;25.64
77077;BME280;66003;52.286;104.306;2024-02-26T09:34:51;97832.13;;;-10.54;25.39
77077;BME280;66003;52.286;104.306;2024-02-26T09:37:17;97826.03;;;-10.63;25.76
77077;BME280;66003;52.286;104.306;2024-02-26T09:39:43;97830.44;;;-10.63;25.71
77077;BME280;66003;52.286;104.306;2024-02-26T09:42:13;97830.91;;;-10.68;25.55
77077;BME280;66003;52.286;104.306;2024-02-26T09:44:40;97824.75;;;-10.84;25.68
77077;BME280;66003;52.286;104.306;2024-02-26T09:47:09;97824.44;;;-10.81;25.73
77077;BME280;66003;52.286;104.306;2024-02-26T09:49:37;97825.28;;;-10.98;25.87
77077;BME280;66003;52.286;104.306;2024-02-26T09:52:04;97823.44;;;-11.06;25.91
77077;BME280;66003;52.286;104.306;2024-02-26T09:54:36;97814.41;;;-11.12;25.95
77077;BME280;66003;52.286;104.306;2024-02-26T09:57:03;97837.28;;;-11.23;25.98
77077;BME280;66003;52.286;104.306;2024-02-26T09:59:39;97822.22;;;-11.47;26.09
77077;BME280;66003;52.286;104.306;2024-02-26T10:02:12;97827.44;;;-11.65;26.46
77077;BME280;66003;52.286;104.306;2024-02-26T10:04:42;97822.97;;;-11.73;26.53
77077;BME280;66003;52.286;104.306;2024-02-26T10:07:13;97832.59;;;-11.83;26.46
77077;BME280;66003;52.286;104.306;2024-02-26T10:09:40;97830.88;;;-11.92;26.58
77077;BME280;66003;52.286;104.306;2024-02-26T10:12:08;97829.09;;;-11.91;26.72
77077;BME280;66003;52.286;104.306;2024-02-26T10:14:35;97835.72;;;-11.97;26.89
77077;BME280;66003;52.286;104.306;2024-02-26T10:17:23;97832.31;;;-12.07;27.00
77077;BME280;66003;52.286;104.306;2024-02-26T10:19:49;97830.31;;;-12.13;27.07
77077;BME280;66003;52.286;104.306;2024-02-26T10:22:17;97826.47;;;-12.19;27.24
77077;BME280;66003;52.286;104.306;2024-02-26T10:24:46;97831.16;;;-12.22;26.89
77077;BME280;66003;52.286;104.306;2024-02-26T10:27:13;97832.94;;;-12.23;26.99
77077;BME280;66003;52.286;104.306;2024-02-26T10:29:40;97838.47;;;-12.35;27.76
77077;BME280;66003;52.286;104.306;2024-02-26T10:32:09;97838.38;;;-12.43;27.70
77077;BME280;66003;52.286;104.306;2024-02-26T10:34:37;97845.06;;;-12.41;27.57
77077;BME280;66003;52.286;104.306;2024-02-26T10:37:07;97849.75;;;-12.44;28.05
77077;BME280;66003;52.286;104.306;2024-02-26T10:39:36;97850.28;;;-12.41;28.22
77077;BME280;66003;52.286;104.306;2024-02-26T10:42:03;97860.81;;;-12.42;27.85
77077;BME280;66003;52.286;104.306;2024-02-26T10:44:35;97866.22;;;-12.44;27.99
77077;BME280;66003;52.286;104.306;2024-02-26T10:47:01;97868.25;;;-12.48;27.83
77077;BME280;66003;52.286;104.306;2024-02-26T10:49:28;97874.53;;;-12.40;27.79
77077;BME280;66003;52.286;104.306;2024-02-26T10:51:57;97864.59;;;-12.55;28.37
77077;BME280;66003;52.286;104.306;2024-02-26T10:54:26;97869.63;;;-12.53;28.10
77077;BME280;66003;52.286;104.306;2024-02-26T10:56:56;97882.00;;;-12.55;28.32
77077;BME280;66003;52.286;104.306;2024-02-26T10:59:26;97871.84;;;-12.58;28.00
77077;BME280;66003;52.286;104.306;2024-02-26T11:01:54;97892.94;;;-12.61;28.04
77077;BME280;66003;52.286;104.306;2024-02-26T11:04:21;97877.47;;;-12.72;28.09
77077;BME280;66003;52.286;104.306;2024-02-26T11:06:49;97881.19;;;-12.75;27.89
77077;BME280;66003;52.286;104.306;2024-02-26T11:09:16;97878.06;;;-12.78;28.12
77077;BME280;66003;52.286;104.306;2024-02-26T11:11:44;97884.34;;;-12.71;28.22
77077;BME280;66003;52.286;104.306;2024-02-26T11:14:11;97879.16;;;-12.81;28.06
77077;BME280;66003;52.286;104.306;2024-02-26T11:16:39;97889.28;;;-12.88;28.34
77077;BME280;66003;52.286;104.306;2024-02-26T11:19:08;97887.66;;;-12.79;28.22
77077;BME280;66003;52.286;104.306;2024-02-26T11:21:37;97894.34;;;-12.86;28.25
77077;BME280;66003;52.286;104.306;2024-02-26T11:24:09;97893.66;;;-12.69;28.19
77077;BME280;66003;52.286;104.306;2024-02-26T11:26:48;97898.16;;;-12.61;28.19
77077;BME280;66003;52.286;104.306;2024-02-26T11:29:19;97894.84;;;-12.44;28.22
77077;BME280;66003;52.286;104.306;2024-02-26T11:31:46;97899.91;;;-12.33;27.75
77077;BME280;66003;52.286;104.306;2024-02-26T11:34:13;97909.06;;;-12.29;27.60
77077;BME280;66003;52.286;104.306;2024-02-26T11:36:39;97909.75;;;-12.27;27.89
77077;BME280;66003;52.286;104.306;2024-02-26T11:39:06;97913.72;;;-12.23;28.02
77077;BME280;66003;52.286;104.306;2024-02-26T11:41:32;97918.22;;;-12.15;27.71
77077;BME280;66003;52.286;104.306;2024-02-26T11:44:01;97907.53;;;-12.22;27.91
77077;BME280;66003;52.286;104.306;2024-02-26T11:48:59;97919.75;;;-12.22;27.67
77077;BME280;66003;52.286;104.306;2024-02-26T11:51:27;97919.75;;;-12.22;27.86
77077;BME280;66003;52.286;104.306;2024-02-26T11:53:54;97918.97;;;-12.32;27.90
77077;BME280;66003;52.286;104.306;2024-02-26T11:56:24;97911.13;;;-12.42;27.81
77077;BME280;66003;52.286;104.306;2024-02-26T11:59:10;97923.34;;;-12.42;28.00
77077;BME280;66003;52.286;104.306;2024-02-26T12:01:43;97924.03;;;-12.40;27.79
77077;BME280;66003;52.286;104.306;2024-02-26T12:04:18;97908.38;;;-12.40;27.74
77077;BME280;66003;52.286;104.306;2024-02-26T12:06:54;97915.81;;;-12.46;27.54
77077;BME280;66003;52.286;104.306;2024-02-26T12:09:41;97921.72;;;-12.43;27.75
77077;BME280;66003;52.286;104.306;2024-02-26T12:12:09;97919.94;;;-12.53;27.93
77077;BME280;66003;52.286;104.306;2024-02-26T12:17:07;97930.66;;;-12.56;27.77
77077;BME280;66003;52.286;104.306;2024-02-26T12:19:37;97929.97;;;-12.58;27.94
77077;BME280;66003;52.286;104.306;2024-02-26T12:22:07;97925.41;;;-12.65;27.89
77077;BME280;66003;52.286;104.306;2024-02-26T12:24:34;97935.31;;;-12.59;27.73
77077;BME280;66003;52.286;104.306;2024-02-26T12:27:00;97920.38;;;-12.57;27.74
77077;BME280;66003;52.286;104.306;2024-02-26T12:29:26;97929.00;;;-12.57;28.14
77077;BME280;66003;52.286;104.306;2024-02-26T12:31:52;97933.25;;;-12.56;27.35
77077;BME280;66003;52.286;104.306;2024-02-26T12:34:19;97931.31;;;-12.54;27.54
77077;BME280;66003;52.286;104.306;2024-02-26T12:36:45;97931.03;;;-12.60;28.26
77077;BME280;66003;52.286;104.306;2024-02-26T12:39:12;97939.28;;;-12.55;27.67
77077;BME280;66003;52.286;104.306;2024-02-26T12:41:38;97935.16;;;-12.58;28.11
77077;BME280;66003;52.286;104.306;2024-02-26T12:44:05;97945.72;;;-12.59;28.01
77077;BME280;66003;52.286;104.306;2024-02-26T12:46:33;97934.72;;;-12.53;27.75